sensor_id;sensor_type;location;lat;lon;timestamp;temperature;humidity
36442;DHT22;22470;50.824;16.284;2022-08-19T00:01:48;25.80;93.50
36442;DHT22;22470;50.824;16.284;2022-08-19T00:04:21;25.70;93.60
36442;DHT22;22470;50.824;16.284;2022-08-19T00:06:49;25.70;93.80
36442;DHT22;22470;50.824;16.284;2022-08-19T00:09:18;25.70;93.70
36442;DHT22;22470;50.824;16.284;2022-08-19T00:11:46;25.70;93.70
36442;DHT22;22470;50.824;16.284;2022-08-19T00:14:16;25.70;93.80
36442;DHT22;22470;50.824;16.284;2022-08-19T00:16:46;25.60;93.90
36442;DHT22;22470;50.824;16.284;2022-08-19T00:19:14;25.60;94.00
36442;DHT22;22470;50.824;16.284;2022-08-19T00:21:42;25.60;94.10
36442;DHT22;22470;50.824;16.284;2022-08-19T00:24:12;25.60;94.10
36442;DHT22;22470;50.824;16.284;2022-08-19T00:26:41;25.60;94.20
36442;DHT22;22470;50.824;16.284;2022-08-19T00:29:10;25.50;94.20
36442;DHT22;22470;50.824;16.284;2022-08-19T00:31:38;25.50;94.20
36442;DHT22;22470;50.824;16.284;2022-08-19T00:34:05;25.50;94.40
36442;DHT22;22470;50.824;16.284;2022-08-19T00:36:33;25.50;94.20
36442;DHT22;22470;50.824;16.284;2022-08-19T00:39:00;25.50;94.20
36442;DHT22;22470;50.824;16.284;2022-08-19T00:41:28;25.40;94.30
36442;DHT22;22470;50.824;16.284;2022-08-19T00:44:01;25.40;94.20
36442;DHT22;22470;50.824;16.284;2022-08-19T00:46:29;25.40;94.30
36442;DHT22;22470;50.824;16.284;2022-08-19T00:48:57;25.40;94.50
36442;DHT22;22470;50.824;16.284;2022-08-19T00:51:28;25.40;94.60
36442;DHT22;22470;50.824;16.284;2022-08-19T00:53:58;25.30;94.70
36442;DHT22;22470;50.824;16.284;2022-08-19T00:56:25;25.30;95.50
36442;DHT22;22470;50.824;16.284;2022-08-19T00:58:55;25.10;95.80
36442;DHT22;22470;50.824;16.284;2022-08-19T01:01:23;25.10;96.20
36442;DHT22;22470;50.824;16.284;2022-08-19T01:03:50;24.90;96.40
36442;DHT22;22470;50.824;16.284;2022-08-19T01:06:25;24.90;96.40
36442;DHT22;22470;50.824;16.284;2022-08-19T01:08:54;24.90;97.20
36442;DHT22;22470;50.824;16.284;2022-08-19T01:11:21;24.80;97.40
36442;DHT22;22470;50.824;16.284;2022-08-19T01:13:50;24.80;97.70
36442;DHT22;22470;50.824;16.284;2022-08-19T01:16:21;24.70;97.90
36442;DHT22;22470;50.824;16.284;2022-08-19T01:18:50;24.60;98.20
36442;DHT22;22470;50.824;16.284;2022-08-19T01:21:26;24.40;98.60
36442;DHT22;22470;50.824;16.284;2022-08-19T01:23:58;24.30;98.90
36442;DHT22;22470;50.824;16.284;2022-08-19T01:26:26;24.40;99.30
36442;DHT22;22470;50.824;16.284;2022-08-19T01:28:56;24.40;99.60
36442;DHT22;22470;50.824;16.284;2022-08-19T01:31:29;24.20;99.90
36442;DHT22;22470;50.824;16.284;2022-08-19T01:34:00;24.10;99.90
36442;DHT22;22470;50.824;16.284;2022-08-19T01:36:37;24.00;99.90
36442;DHT22;22470;50.824;16.284;2022-08-19T01:39:09;23.90;99.90
36442;DHT22;22470;50.824;16.284;2022-08-19T01:41:37;23.90;99.90
36442;DHT22;22470;50.824;16.284;2022-08-19T01:44:06;23.90;99.90
36442;DHT22;22470;50.824;16.284;2022-08-19T01:46:46;23.90;99.90
36442;DHT22;22470;50.824;16.284;2022-08-19T01:49:15;23.70;99.90
36442;DHT22;22470;50.824;16.284;2022-08-19T01:51:42;23.80;99.90
36442;DHT22;22470;50.824;16.284;2022-08-19T01:54:14;23.70;99.90
36442;DHT22;22470;50.824;16.284;2022-08-19T01:56:58;23.70;99.90
36442;DHT22;22470;50.824;16.284;2022-08-19T01:59:27;23.70;99.90
36442;DHT22;22470;50.824;16.284;2022-08-19T02:01:55;23.60;99.90
36442;DHT22;22470;50.824;16.284;2022-08-19T02:04:22;23.50;99.90
36442;DHT22;22470;50.824;16.284;2022-08-19T02:06:49;23.40;99.90
36442;DHT22;22470;50.824;16.284;2022-08-19T02:09:16;23.40;99.90
36442;DHT22;22470;50.824;16.284;2022-08-19T02:11:43;23.40;99.90
36442;DHT22;22470;50.824;16.284;2022-08-19T02:14:11;23.30;99.90
36442;DHT22;22470;50.824;16.284;2022-08-19T02:16:38;23.30;99.90
36442;DHT22;22470;50.824;16.284;2022-08-19T02:19:05;23.30;99.90
36442;DHT22;22470;50.824;16.284;2022-08-19T02:21:33;23.30;99.90
36442;DHT22;22470;50.824;16.284;2022-08-19T02:24:00;23.20;99.90
36442;DHT22;22470;50.824;16.284;2022-08-19T02:26:28;23.00;99.90
36442;DHT22;22470;50.824;16.284;2022-08-19T02:28:55;22.90;99.90
36442;DHT22;22470;50.824;16.284;2022-08-19T02:31:24;22.90;99.90
36442;DHT22;22470;50.824;16.284;2022-08-19T02:33:52;22.80;99.90
36442;DHT22;22470;50.824;16.284;2022-08-19T02:36:24;22.90;99.90
36442;DHT22;22470;50.824;16.284;2022-08-19T02:38:53;22.90;99.90
36442;DHT22;22470;50.824;16.284;2022-08-19T02:41:25;22.90;99.90
36442;DHT22;22470;50.824;16.284;2022-08-19T02:43:57;23.00;99.90
36442;DHT22;22470;50.824;16.284;2022-08-19T02:46:46;23.00;99.90
36442;DHT22;22470;50.824;16.284;2022-08-19T02:49:14;23.10;99.90
36442;DHT22;22470;50.824;16.284;2022-08-19T02:51:43;23.00;99.90
36442;DHT22;22470;50.824;16.284;2022-08-19T02:54:12;22.90;99.90
36442;DHT22;22470;50.824;16.284;2022-08-19T02:56:41;22.80;99.90
36442;DHT22;22470;50.824;16.284;2022-08-19T02:59:08;22.70;99.90
36442;DHT22;22470;50.824;16.284;2022-08-19T03:01:38;22.70;99.90
36442;DHT22;22470;50.824;16.284;2022-08-19T03:04:07;22.70;99.90
36442;DHT22;22470;50.824;16.284;2022-08-19T03:06:39;22.70;99.90
36442;DHT22;22470;50.824;16.284;2022-08-19T03:09:07;22.80;99.90
36442;DHT22;22470;50.824;16.284;2022-08-19T03:11:35;22.70;99.90
36442;DHT22;22470;50.824;16.284;2022-08-19T03:14:03;22.70;99.90
36442;DHT22;22470;50.824;16.284;2022-08-19T03:16:34;22.70;99.90
36442;DHT22;22470;50.824;16.284;2022-08-19T03:19:01;22.70;99.90
36442;DHT22;22470;50.824;16.284;2022-08-19T03:21:32;22.60;99.90
36442;DHT22;22470;50.824;16.284;2022-08-19T03:24:02;22.60;99.90
36442;DHT22;22470;50.824;16.284;2022-08-19T03:26:30;22.50;99.90
36442;DHT22;22470;50.824;16.284;2022-08-19T03:28:57;22.50;99.90
36442;DHT22;22470;50.824;16.284;2022-08-19T03:31:31;22.40;99.90
36442;DHT22;22470;50.824;16.284;2022-08-19T03:34:20;22.50;99.90
36442;DHT22;22470;50.824;16.284;2022-08-19T03:36:48;22.50;99.90
36442;DHT22;22470;50.824;16.284;2022-08-19T03:39:15;22.60;99.90
36442;DHT22;22470;50.824;16.284;2022-08-19T03:41:44;22.70;99.90
36442;DHT22;22470;50.824;16.284;2022-08-19T03:44:16;22.80;99.90
36442;DHT22;22470;50.824;16.284;2022-08-19T03:46:50;23.00;99.90
36442;DHT22;22470;50.824;16.284;2022-08-19T03:49:18;23.10;99.90
36442;DHT22;22470;50.824;16.284;2022-08-19T03:51:47;23.20;99.90
36442;DHT22;22470;50.824;16.284;2022-08-19T03:54:17;23.30;99.90
36442;DHT22;22470;50.824;16.284;2022-08-19T03:56:47;23.40;99.90
36442;DHT22;22470;50.824;16.284;2022-08-19T03:59:27;23.50;99.90
36442;DHT22;22470;50.824;16.284;2022-08-19T04:01:56;23.50;99.90
36442;DHT22;22470;50.824;16.284;2022-08-19T04:04:24;23.60;99.90
36442;DHT22;22470;50.824;16.284;2022-08-19T04:06:56;23.70;99.90
36442;DHT22;22470;50.824;16.284;2022-08-19T04:09:24;23.70;99.90
36442;DHT22;22470;50.824;16.284;2022-08-19T04:11:54;23.70;99.90
36442;DHT22;22470;50.824;16.284;2022-08-19T04:14:25;23.80;99.90
36442;DHT22;22470;50.824;16.284;2022-08-19T04:16:53;23.80;99.90
36442;DHT22;22470;50.824;16.284;2022-08-19T04:19:20;23.90;99.90
36442;DHT22;22470;50.824;16.284;2022-08-19T04:21:50;23.90;99.90
36442;DHT22;22470;50.824;16.284;2022-08-19T04:24:18;24.00;99.90
36442;DHT22;22470;50.824;16.284;2022-08-19T04:26:46;24.00;99.90
36442;DHT22;22470;50.824;16.284;2022-08-19T04:29:25;24.10;99.90
36442;DHT22;22470;50.824;16.284;2022-08-19T04:31:54;24.10;99.90
36442;DHT22;22470;50.824;16.284;2022-08-19T04:34:27;24.10;99.90
36442;DHT22;22470;50.824;16.284;2022-08-19T04:36:56;24.10;99.90
36442;DHT22;22470;50.824;16.284;2022-08-19T04:39:30;24.10;99.90
36442;DHT22;22470;50.824;16.284;2022-08-19T04:41:57;24.10;99.90
36442;DHT22;22470;50.824;16.284;2022-08-19T04:44:24;24.10;99.90
36442;DHT22;22470;50.824;16.284;2022-08-19T04:46:52;24.10;99.90
36442;DHT22;22470;50.824;16.284;2022-08-19T04:49:21;24.10;99.90
36442;DHT22;22470;50.824;16.284;2022-08-19T04:51:50;24.10;99.90
36442;DHT22;22470;50.824;16.284;2022-08-19T04:54:19;24.20;99.90
36442;DHT22;22470;50.824;16.284;2022-08-19T04:57:04;24.20;99.90
36442;DHT22;22470;50.824;16.284;2022-08-19T04:59:32;24.20;99.90
36442;DHT22;22470;50.824;16.284;2022-08-19T05:01:59;24.20;99.90
36442;DHT22;22470;50.824;16.284;2022-08-19T05:04:26;24.30;99.90
36442;DHT22;22470;50.824;16.284;2022-08-19T05:06:53;24.30;99.90
36442;DHT22;22470;50.824;16.284;2022-08-19T05:09:28;24.30;99.90
36442;DHT22;22470;50.824;16.284;2022-08-19T05:12:15;24.30;99.90
36442;DHT22;22470;50.824;16.284;2022-08-19T05:14:43;24.40;99.90
36442;DHT22;22470;50.824;16.284;2022-08-19T05:17:10;24.40;99.90
36442;DHT22;22470;50.824;16.284;2022-08-19T05:19:55;24.50;99.90
36442;DHT22;22470;50.824;16.284;2022-08-19T05:22:22;24.50;99.90
36442;DHT22;22470;50.824;16.284;2022-08-19T05:24:49;24.60;99.90
36442;DHT22;22470;50.824;16.284;2022-08-19T05:27:37;24.70;99.90
36442;DHT22;22470;50.824;16.284;2022-08-19T05:30:05;24.80;99.90
36442;DHT22;22470;50.824;16.284;2022-08-19T05:32:32;24.90;99.90
36442;DHT22;22470;50.824;16.284;2022-08-19T05:35:00;25.00;99.90
36442;DHT22;22470;50.824;16.284;2022-08-19T05:37:27;25.10;99.90
36442;DHT22;22470;50.824;16.284;2022-08-19T05:39:54;25.30;99.90
36442;DHT22;22470;50.824;16.284;2022-08-19T05:42:22;25.50;99.90
36442;DHT22;22470;50.824;16.284;2022-08-19T05:44:50;25.70;99.90
36442;DHT22;22470;50.824;16.284;2022-08-19T05:47:18;25.90;99.90
36442;DHT22;22470;50.824;16.284;2022-08-19T05:49:46;26.00;99.90
36442;DHT22;22470;50.824;16.284;2022-08-19T05:52:15;26.10;99.90
36442;DHT22;22470;50.824;16.284;2022-08-19T05:54:46;26.20;99.70
36442;DHT22;22470;50.824;16.284;2022-08-19T05:57:20;26.20;99.70
36442;DHT22;22470;50.824;16.284;2022-08-19T05:59:47;26.40;99.90
36442;DHT22;22470;50.824;16.284;2022-08-19T06:02:14;26.60;99.70
36442;DHT22;22470;50.824;16.284;2022-08-19T06:04:42;26.80;99.50
36442;DHT22;22470;50.824;16.284;2022-08-19T06:07:09;26.90;99.30
36442;DHT22;22470;50.824;16.284;2022-08-19T06:09:39;27.00;98.40
36442;DHT22;22470;50.824;16.284;2022-08-19T06:12:07;27.20;98.30
36442;DHT22;22470;50.824;16.284;2022-08-19T06:14:37;27.40;98.30
36442;DHT22;22470;50.824;16.284;2022-08-19T06:17:08;27.70;98.20
36442;DHT22;22470;50.824;16.284;2022-08-19T06:19:35;27.90;97.60
36442;DHT22;22470;50.824;16.284;2022-08-19T06:22:07;28.10;97.10
36442;DHT22;22470;50.824;16.284;2022-08-19T06:24:34;28.30;96.80
36442;DHT22;22470;50.824;16.284;2022-08-19T06:27:03;28.60;96.60
36442;DHT22;22470;50.824;16.284;2022-08-19T06:29:30;28.40;96.00
36442;DHT22;22470;50.824;16.284;2022-08-19T06:31:59;28.50;96.10
36442;DHT22;22470;50.824;16.284;2022-08-19T06:34:29;28.60;95.80
36442;DHT22;22470;50.824;16.284;2022-08-19T06:36:59;28.70;95.40
36442;DHT22;22470;50.824;16.284;2022-08-19T06:39:30;28.70;95.50
36442;DHT22;22470;50.824;16.284;2022-08-19T06:42:00;28.70;95.70
36442;DHT22;22470;50.824;16.284;2022-08-19T06:44:29;28.70;95.60
36442;DHT22;22470;50.824;16.284;2022-08-19T06:46:57;28.70;95.50
36442;DHT22;22470;50.824;16.284;2022-08-19T06:49:24;28.80;95.20
36442;DHT22;22470;50.824;16.284;2022-08-19T06:51:52;28.90;95.30
36442;DHT22;22470;50.824;16.284;2022-08-19T06:54:20;29.00;95.40
36442;DHT22;22470;50.824;16.284;2022-08-19T06:56:47;29.00;95.00
36442;DHT22;22470;50.824;16.284;2022-08-19T06:59:18;29.10;95.70
36442;DHT22;22470;50.824;16.284;2022-08-19T07:01:48;29.30;94.90
36442;DHT22;22470;50.824;16.284;2022-08-19T07:04:18;29.30;95.30
36442;DHT22;22470;50.824;16.284;2022-08-19T07:06:46;29.50;95.00
36442;DHT22;22470;50.824;16.284;2022-08-19T07:09:21;29.70;94.50
36442;DHT22;22470;50.824;16.284;2022-08-19T07:11:50;29.80;94.50
36442;DHT22;22470;50.824;16.284;2022-08-19T07:14:20;29.90;93.90
36442;DHT22;22470;50.824;16.284;2022-08-19T07:16:49;30.10;94.20
36442;DHT22;22470;50.824;16.284;2022-08-19T07:19:18;30.30;94.20
36442;DHT22;22470;50.824;16.284;2022-08-19T07:21:48;30.60;93.70
36442;DHT22;22470;50.824;16.284;2022-08-19T07:24:17;30.90;93.50
36442;DHT22;22470;50.824;16.284;2022-08-19T07:26:44;31.00;92.90
36442;DHT22;22470;50.824;16.284;2022-08-19T07:29:12;31.00;92.60
36442;DHT22;22470;50.824;16.284;2022-08-19T07:31:40;31.00;92.80
36442;DHT22;22470;50.824;16.284;2022-08-19T07:34:11;31.10;92.50
36442;DHT22;22470;50.824;16.284;2022-08-19T07:36:39;31.00;92.00
36442;DHT22;22470;50.824;16.284;2022-08-19T07:39:13;31.10;92.20
36442;DHT22;22470;50.824;16.284;2022-08-19T07:41:41;31.20;92.40
36442;DHT22;22470;50.824;16.284;2022-08-19T07:44:08;31.30;91.90
36442;DHT22;22470;50.824;16.284;2022-08-19T07:46:38;31.30;91.80
36442;DHT22;22470;50.824;16.284;2022-08-19T07:49:07;31.40;92.20
36442;DHT22;22470;50.824;16.284;2022-08-19T07:51:34;31.50;91.80
36442;DHT22;22470;50.824;16.284;2022-08-19T07:54:03;31.60;91.80
36442;DHT22;22470;50.824;16.284;2022-08-19T07:56:30;31.80;91.70
36442;DHT22;22470;50.824;16.284;2022-08-19T07:58:58;31.90;91.80
36442;DHT22;22470;50.824;16.284;2022-08-19T08:01:26;32.20;91.90
36442;DHT22;22470;50.824;16.284;2022-08-19T08:03:55;32.30;90.80
36442;DHT22;22470;50.824;16.284;2022-08-19T08:06:23;32.50;90.90
36442;DHT22;22470;50.824;16.284;2022-08-19T08:08:50;32.60;90.80
36442;DHT22;22470;50.824;16.284;2022-08-19T08:11:19;32.80;91.70
36442;DHT22;22470;50.824;16.284;2022-08-19T08:13:48;33.20;90.80
36442;DHT22;22470;50.824;16.284;2022-08-19T08:16:28;33.50;90.10
36442;DHT22;22470;50.824;16.284;2022-08-19T08:18:55;33.60;88.80
36442;DHT22;22470;50.824;16.284;2022-08-19T08:21:23;33.70;89.00
36442;DHT22;22470;50.824;16.284;2022-08-19T08:23:50;33.80;87.80
36442;DHT22;22470;50.824;16.284;2022-08-19T08:26:22;33.80;86.90
36442;DHT22;22470;50.824;16.284;2022-08-19T08:28:50;33.80;87.60
36442;DHT22;22470;50.824;16.284;2022-08-19T08:31:18;33.50;89.40
36442;DHT22;22470;50.824;16.284;2022-08-19T08:33:47;33.30;87.40
36442;DHT22;22470;50.824;16.284;2022-08-19T08:36:15;33.20;89.00
36442;DHT22;22470;50.824;16.284;2022-08-19T08:38:43;32.90;87.40
36442;DHT22;22470;50.824;16.284;2022-08-19T08:41:33;32.60;87.40
36442;DHT22;22470;50.824;16.284;2022-08-19T08:44:02;32.10;87.90
36442;DHT22;22470;50.824;16.284;2022-08-19T08:46:41;31.60;88.80
36442;DHT22;22470;50.824;16.284;2022-08-19T08:51:46;30.70;90.30
36442;DHT22;22470;50.824;16.284;2022-08-19T08:54:30;30.40;90.40
36442;DHT22;22470;50.824;16.284;2022-08-19T08:57:04;30.20;90.60
36442;DHT22;22470;50.824;16.284;2022-08-19T08:59:35;30.00;90.90
36442;DHT22;22470;50.824;16.284;2022-08-19T09:02:04;29.80;91.40
36442;DHT22;22470;50.824;16.284;2022-08-19T09:04:31;29.70;91.70
36442;DHT22;22470;50.824;16.284;2022-08-19T09:07:21;29.50;92.10
36442;DHT22;22470;50.824;16.284;2022-08-19T09:10:29;29.20;92.10
36442;DHT22;22470;50.824;16.284;2022-08-19T09:15:42;29.20;92.80
36442;DHT22;22470;50.824;16.284;2022-08-19T09:18:11;29.40;92.60
36442;DHT22;22470;50.824;16.284;2022-08-19T09:20:46;29.70;92.60
36442;DHT22;22470;50.824;16.284;2022-08-19T09:23:13;29.90;92.30
36442;DHT22;22470;50.824;16.284;2022-08-19T09:25:41;30.10;91.90
36442;DHT22;22470;50.824;16.284;2022-08-19T09:28:08;30.30;91.40
36442;DHT22;22470;50.824;16.284;2022-08-19T09:30:48;30.40;91.50
